sensor_id;sensor_type;location;lat;lon;timestamp;P1;durP1;ratioP1;P2;durP2;ratioP2
81938;SDS011;71437;42.018;21.354;2023-07-16T00:02:14;22.00;;;13.95;;
81938;SDS011;71437;42.018;21.354;2023-07-16T00:04:40;22.10;;;13.75;;
81938;SDS011;71437;42.018;21.354;2023-07-16T00:07:06;20.42;;;14.32;;
81938;SDS011;71437;42.018;21.354;2023-07-16T00:09:32;19.73;;;13.10;;
81938;SDS011;71437;42.018;21.354;2023-07-16T00:11:58;18.20;;;13.73;;
81938;SDS011;71437;42.018;21.354;2023-07-16T00:14:24;17.58;;;13.00;;
81938;SDS011;71437;42.018;21.354;2023-07-16T00:16:50;20.67;;;12.38;;
81938;SDS011;71437;42.018;21.354;2023-07-16T00:19:16;21.02;;;13.00;;
81938;SDS011;71437;42.018;21.354;2023-07-16T00:21:42;21.63;;;12.98;;
81938;SDS011;71437;42.018;21.354;2023-07-16T00:24:08;20.25;;;12.85;;
81938;SDS011;71437;42.018;21.354;2023-07-16T00:26:34;20.30;;;13.18;;
81938;SDS011;71437;42.018;21.354;2023-07-16T00:29:00;22.67;;;13.55;;
81938;SDS011;71437;42.018;21.354;2023-07-16T00:31:26;15.30;;;11.77;;
81938;SDS011;71437;42.018;21.354;2023-07-16T00:33:52;19.85;;;13.23;;
81938;SDS011;71437;42.018;21.354;2023-07-16T00:36:18;23.70;;;14.13;;
81938;SDS011;71437;42.018;21.354;2023-07-16T00:38:44;18.58;;;11.75;;
81938;SDS011;71437;42.018;21.354;2023-07-16T00:41:12;20.92;;;13.18;;
81938;SDS011;71437;42.018;21.354;2023-07-16T00:43:39;19.95;;;13.48;;
81938;SDS011;71437;42.018;21.354;2023-07-16T00:46:05;20.48;;;12.95;;
81938;SDS011;71437;42.018;21.354;2023-07-16T00:48:32;19.90;;;12.95;;
81938;SDS011;71437;42.018;21.354;2023-07-16T00:50:58;19.65;;;13.10;;
81938;SDS011;71437;42.018;21.354;2023-07-16T00:53:26;21.63;;;13.27;;
81938;SDS011;71437;42.018;21.354;2023-07-16T00:55:52;19.15;;;13.55;;
81938;SDS011;71437;42.018;21.354;2023-07-16T00:58:18;19.27;;;13.50;;
81938;SDS011;71437;42.018;21.354;2023-07-16T01:00:44;22.98;;;13.60;;
81938;SDS011;71437;42.018;21.354;2023-07-16T01:03:11;18.70;;;13.18;;
81938;SDS011;71437;42.018;21.354;2023-07-16T01:06:12;22.35;;;14.40;;
81938;SDS011;71437;42.018;21.354;2023-07-16T01:08:35;20.27;;;13.73;;
81938;SDS011;71437;42.018;21.354;2023-07-16T01:11:02;19.25;;;13.13;;
81938;SDS011;71437;42.018;21.354;2023-07-16T01:13:29;20.83;;;13.40;;
81938;SDS011;71437;42.018;21.354;2023-07-16T01:15:55;21.15;;;13.02;;
81938;SDS011;71437;42.018;21.354;2023-07-16T01:18:21;21.17;;;12.77;;
81938;SDS011;71437;42.018;21.354;2023-07-16T01:20:47;19.33;;;13.25;;
81938;SDS011;71437;42.018;21.354;2023-07-16T01:23:24;20.55;;;13.57;;
81938;SDS011;71437;42.018;21.354;2023-07-16T01:26:05;19.38;;;13.45;;
81938;SDS011;71437;42.018;21.354;2023-07-16T01:28:38;20.50;;;14.45;;
81938;SDS011;71437;42.018;21.354;2023-07-16T01:31:06;19.02;;;13.05;;
81938;SDS011;71437;42.018;21.354;2023-07-16T01:33:33;26.63;;;12.88;;
81938;SDS011;71437;42.018;21.354;2023-07-16T01:35:59;22.92;;;13.45;;
81938;SDS011;71437;42.018;21.354;2023-07-16T01:38:25;18.38;;;12.73;;
81938;SDS011;71437;42.018;21.354;2023-07-16T01:40:52;17.98;;;13.15;;
81938;SDS011;71437;42.018;21.354;2023-07-16T01:43:18;19.33;;;13.15;;
81938;SDS011;71437;42.018;21.354;2023-07-16T01:45:44;18.15;;;12.80;;
81938;SDS011;71437;42.018;21.354;2023-07-16T01:48:22;25.08;;;14.98;;
81938;SDS011;71437;42.018;21.354;2023-07-16T01:50:50;22.00;;;14.25;;
81938;SDS011;71437;42.018;21.354;2023-07-16T01:53:16;21.27;;;14.25;;
81938;SDS011;71437;42.018;21.354;2023-07-16T01:55:42;31.48;;;13.43;;
81938;SDS011;71437;42.018;21.354;2023-07-16T01:58:08;32.20;;;14.18;;
81938;SDS011;71437;42.018;21.354;2023-07-16T02:00:35;20.63;;;12.80;;
81938;SDS011;71437;42.018;21.354;2023-07-16T02:03:02;21.90;;;13.60;;
81938;SDS011;71437;42.018;21.354;2023-07-16T02:05:28;22.35;;;13.88;;
81938;SDS011;71437;42.018;21.354;2023-07-16T02:07:54;17.75;;;13.25;;
81938;SDS011;71437;42.018;21.354;2023-07-16T02:10:20;24.63;;;17.83;;
81938;SDS011;71437;42.018;21.354;2023-07-16T02:12:46;24.10;;;18.88;;
81938;SDS011;71437;42.018;21.354;2023-07-16T02:15:12;23.02;;;16.20;;
81938;SDS011;71437;42.018;21.354;2023-07-16T02:17:38;23.77;;;15.88;;
81938;SDS011;71437;42.018;21.354;2023-07-16T02:20:04;20.25;;;14.18;;
81938;SDS011;71437;42.018;21.354;2023-07-16T02:22:31;22.73;;;14.73;;
81938;SDS011;71437;42.018;21.354;2023-07-16T02:24:57;20.55;;;15.10;;
81938;SDS011;71437;42.018;21.354;2023-07-16T02:27:23;19.25;;;13.50;;
81938;SDS011;71437;42.018;21.354;2023-07-16T02:29:49;18.42;;;13.73;;
81938;SDS011;71437;42.018;21.354;2023-07-16T02:32:15;18.33;;;13.30;;
81938;SDS011;71437;42.018;21.354;2023-07-16T02:34:41;20.95;;;14.15;;
81938;SDS011;71437;42.018;21.354;2023-07-16T02:37:07;21.05;;;14.10;;
81938;SDS011;71437;42.018;21.354;2023-07-16T02:39:33;20.27;;;13.98;;
81938;SDS011;71437;42.018;21.354;2023-07-16T02:41:59;18.50;;;13.77;;
81938;SDS011;71437;42.018;21.354;2023-07-16T02:44:25;18.80;;;14.30;;
81938;SDS011;71437;42.018;21.354;2023-07-16T02:46:51;21.02;;;14.00;;
81938;SDS011;71437;42.018;21.354;2023-07-16T02:49:17;20.58;;;14.77;;
81938;SDS011;71437;42.018;21.354;2023-07-16T02:51:43;23.13;;;14.25;;
81938;SDS011;71437;42.018;21.354;2023-07-16T02:54:09;21.42;;;13.73;;
81938;SDS011;71437;42.018;21.354;2023-07-16T02:56:35;20.08;;;14.18;;
81938;SDS011;71437;42.018;21.354;2023-07-16T02:59:02;18.60;;;13.50;;
81938;SDS011;71437;42.018;21.354;2023-07-16T03:01:28;19.13;;;12.75;;
81938;SDS011;71437;42.018;21.354;2023-07-16T03:03:54;22.30;;;13.60;;
81938;SDS011;71437;42.018;21.354;2023-07-16T03:06:20;18.35;;;13.20;;
81938;SDS011;71437;42.018;21.354;2023-07-16T03:08:46;21.45;;;13.50;;
81938;SDS011;71437;42.018;21.354;2023-07-16T03:11:13;19.88;;;13.40;;
81938;SDS011;71437;42.018;21.354;2023-07-16T03:13:39;21.52;;;14.45;;
81938;SDS011;71437;42.018;21.354;2023-07-16T03:16:05;20.17;;;13.38;;
81938;SDS011;71437;42.018;21.354;2023-07-16T03:18:32;21.50;;;13.93;;
81938;SDS011;71437;42.018;21.354;2023-07-16T03:20:58;18.98;;;14.32;;
81938;SDS011;71437;42.018;21.354;2023-07-16T03:23:24;21.60;;;14.48;;
81938;SDS011;71437;42.018;21.354;2023-07-16T03:25:51;21.40;;;13.13;;
81938;SDS011;71437;42.018;21.354;2023-07-16T03:28:17;17.67;;;12.88;;
81938;SDS011;71437;42.018;21.354;2023-07-16T03:30:50;20.05;;;13.02;;
81938;SDS011;71437;42.018;21.354;2023-07-16T03:33:16;18.42;;;13.60;;
81938;SDS011;71437;42.018;21.354;2023-07-16T03:35:43;18.80;;;13.40;;
81938;SDS011;71437;42.018;21.354;2023-07-16T03:38:10;22.23;;;12.60;;
81938;SDS011;71437;42.018;21.354;2023-07-16T03:40:36;19.38;;;13.60;;
81938;SDS011;71437;42.018;21.354;2023-07-16T03:43:02;18.38;;;13.70;;
81938;SDS011;71437;42.018;21.354;2023-07-16T03:45:28;20.40;;;13.05;;
81938;SDS011;71437;42.018;21.354;2023-07-16T03:47:54;19.35;;;13.13;;
81938;SDS011;71437;42.018;21.354;2023-07-16T03:50:21;19.08;;;13.68;;
81938;SDS011;71437;42.018;21.354;2023-07-16T03:52:47;19.08;;;14.05;;
81938;SDS011;71437;42.018;21.354;2023-07-16T03:55:13;18.02;;;13.07;;
81938;SDS011;71437;42.018;21.354;2023-07-16T03:57:40;16.98;;;12.38;;
81938;SDS011;71437;42.018;21.354;2023-07-16T04:00:06;17.77;;;12.73;;
81938;SDS011;71437;42.018;21.354;2023-07-16T04:02:34;17.02;;;12.88;;
81938;SDS011;71437;42.018;21.354;2023-07-16T04:05:00;18.48;;;13.00;;
81938;SDS011;71437;42.018;21.354;2023-07-16T04:07:26;24.13;;;13.77;;
81938;SDS011;71437;42.018;21.354;2023-07-16T04:09:52;18.73;;;13.50;;
81938;SDS011;71437;42.018;21.354;2023-07-16T04:12:18;17.42;;;12.88;;
81938;SDS011;71437;42.018;21.354;2023-07-16T04:14:44;17.23;;;13.38;;
81938;SDS011;71437;42.018;21.354;2023-07-16T04:17:10;17.58;;;12.25;;
81938;SDS011;71437;42.018;21.354;2023-07-16T04:19:37;21.88;;;14.73;;
81938;SDS011;71437;42.018;21.354;2023-07-16T04:22:03;21.83;;;13.07;;
81938;SDS011;71437;42.018;21.354;2023-07-16T04:24:29;17.58;;;12.30;;
81938;SDS011;71437;42.018;21.354;2023-07-16T04:26:55;18.88;;;13.45;;
81938;SDS011;71437;42.018;21.354;2023-07-16T04:29:21;18.58;;;12.73;;
81938;SDS011;71437;42.018;21.354;2023-07-16T04:31:48;19.00;;;13.20;;
81938;SDS011;71437;42.018;21.354;2023-07-16T04:34:14;20.20;;;13.00;;
81938;SDS011;71437;42.018;21.354;2023-07-16T04:36:41;19.67;;;13.02;;
81938;SDS011;71437;42.018;21.354;2023-07-16T04:39:07;18.77;;;13.05;;
81938;SDS011;71437;42.018;21.354;2023-07-16T04:41:33;16.50;;;12.52;;
81938;SDS011;71437;42.018;21.354;2023-07-16T04:43:59;18.42;;;13.10;;
81938;SDS011;71437;42.018;21.354;2023-07-16T04:46:25;20.73;;;13.27;;
81938;SDS011;71437;42.018;21.354;2023-07-16T04:48:51;21.88;;;13.20;;
81938;SDS011;71437;42.018;21.354;2023-07-16T04:51:18;17.98;;;13.70;;
81938;SDS011;71437;42.018;21.354;2023-07-16T04:53:44;19.90;;;13.80;;
81938;SDS011;71437;42.018;21.354;2023-07-16T04:56:11;19.63;;;13.68;;
81938;SDS011;71437;42.018;21.354;2023-07-16T04:58:37;21.17;;;14.90;;
81938;SDS011;71437;42.018;21.354;2023-07-16T05:01:03;26.80;;;13.50;;
81938;SDS011;71437;42.018;21.354;2023-07-16T05:03:30;17.42;;;12.68;;
81938;SDS011;71437;42.018;21.354;2023-07-16T05:05:56;21.10;;;13.82;;
81938;SDS011;71437;42.018;21.354;2023-07-16T05:08:22;17.75;;;14.18;;
81938;SDS011;71437;42.018;21.354;2023-07-16T05:10:48;18.58;;;13.27;;
81938;SDS011;71437;42.018;21.354;2023-07-16T05:13:14;24.65;;;13.85;;
81938;SDS011;71437;42.018;21.354;2023-07-16T05:15:40;22.45;;;15.02;;
81938;SDS011;71437;42.018;21.354;2023-07-16T05:18:06;21.17;;;14.68;;
81938;SDS011;71437;42.018;21.354;2023-07-16T05:20:32;17.30;;;14.30;;
81938;SDS011;71437;42.018;21.354;2023-07-16T05:22:58;21.52;;;14.85;;
81938;SDS011;71437;42.018;21.354;2023-07-16T05:25:24;17.52;;;15.48;;
81938;SDS011;71437;42.018;21.354;2023-07-16T05:27:50;21.65;;;14.98;;
81938;SDS011;71437;42.018;21.354;2023-07-16T05:30:16;20.70;;;13.93;;
81938;SDS011;71437;42.018;21.354;2023-07-16T05:32:43;22.27;;;15.23;;
81938;SDS011;71437;42.018;21.354;2023-07-16T05:35:09;26.20;;;14.73;;
81938;SDS011;71437;42.018;21.354;2023-07-16T05:37:35;25.30;;;14.95;;
81938;SDS011;71437;42.018;21.354;2023-07-16T05:40:01;20.80;;;14.55;;
81938;SDS011;71437;42.018;21.354;2023-07-16T05:42:28;27.42;;;15.45;;
81938;SDS011;71437;42.018;21.354;2023-07-16T05:44:54;20.90;;;14.80;;
81938;SDS011;71437;42.018;21.354;2023-07-16T05:47:20;19.48;;;14.07;;
81938;SDS011;71437;42.018;21.354;2023-07-16T05:49:46;19.60;;;14.48;;
81938;SDS011;71437;42.018;21.354;2023-07-16T05:52:12;23.67;;;14.48;;
81938;SDS011;71437;42.018;21.354;2023-07-16T05:54:38;22.75;;;14.32;;
81938;SDS011;71437;42.018;21.354;2023-07-16T05:57:04;21.85;;;14.98;;
81938;SDS011;71437;42.018;21.354;2023-07-16T05:59:31;18.92;;;13.32;;
81938;SDS011;71437;42.018;21.354;2023-07-16T06:02:02;16.75;;;13.90;;
81938;SDS011;71437;42.018;21.354;2023-07-16T06:04:28;22.30;;;14.10;;
81938;SDS011;71437;42.018;21.354;2023-07-16T06:06:54;22.40;;;15.25;;
81938;SDS011;71437;42.018;21.354;2023-07-16T06:09:20;22.42;;;15.23;;
81938;SDS011;71437;42.018;21.354;2023-07-16T06:11:47;23.23;;;15.90;;
81938;SDS011;71437;42.018;21.354;2023-07-16T06:14:13;21.05;;;15.07;;
81938;SDS011;71437;42.018;21.354;2023-07-16T06:16:39;18.85;;;15.95;;
81938;SDS011;71437;42.018;21.354;2023-07-16T06:19:05;20.35;;;16.58;;
81938;SDS011;71437;42.018;21.354;2023-07-16T06:21:31;23.27;;;16.05;;
81938;SDS011;71437;42.018;21.354;2023-07-16T06:23:57;19.17;;;15.90;;
81938;SDS011;71437;42.018;21.354;2023-07-16T06:26:23;20.88;;;16.50;;
81938;SDS011;71437;42.018;21.354;2023-07-16T06:28:49;19.50;;;15.88;;
81938;SDS011;71437;42.018;21.354;2023-07-16T06:31:16;20.17;;;16.83;;
81938;SDS011;71437;42.018;21.354;2023-07-16T06:33:42;21.20;;;15.18;;
81938;SDS011;71437;42.018;21.354;2023-07-16T06:36:08;19.33;;;14.88;;
81938;SDS011;71437;42.018;21.354;2023-07-16T06:38:34;18.55;;;15.05;;
81938;SDS011;71437;42.018;21.354;2023-07-16T06:41:00;19.48;;;16.25;;
81938;SDS011;71437;42.018;21.354;2023-07-16T06:43:27;21.05;;;14.30;;
81938;SDS011;71437;42.018;21.354;2023-07-16T06:45:53;22.42;;;14.93;;
81938;SDS011;71437;42.018;21.354;2023-07-16T06:48:19;21.73;;;15.93;;
81938;SDS011;71437;42.018;21.354;2023-07-16T06:50:45;22.98;;;15.98;;
81938;SDS011;71437;42.018;21.354;2023-07-16T06:53:11;19.02;;;14.68;;
81938;SDS011;71437;42.018;21.354;2023-07-16T06:55:37;18.02;;;14.95;;
81938;SDS011;71437;42.018;21.354;2023-07-16T06:58:03;18.98;;;13.80;;
81938;SDS011;71437;42.018;21.354;2023-07-16T07:00:29;19.88;;;13.75;;
81938;SDS011;71437;42.018;21.354;2023-07-16T07:02:55;18.65;;;13.77;;
81938;SDS011;71437;42.018;21.354;2023-07-16T07:05:21;21.30;;;13.95;;
81938;SDS011;71437;42.018;21.354;2023-07-16T07:07:47;22.27;;;15.10;;
81938;SDS011;71437;42.018;21.354;2023-07-16T07:10:13;23.77;;;14.68;;
81938;SDS011;71437;42.018;21.354;2023-07-16T07:12:39;17.95;;;12.40;;
81938;SDS011;71437;42.018;21.354;2023-07-16T07:15:08;21.00;;;13.40;;
81938;SDS011;71437;42.018;21.354;2023-07-16T07:17:34;17.67;;;12.68;;
81938;SDS011;71437;42.018;21.354;2023-07-16T07:20:01;19.33;;;12.40;;
81938;SDS011;71437;42.018;21.354;2023-07-16T07:22:28;17.98;;;14.45;;
81938;SDS011;71437;42.018;21.354;2023-07-16T07:24:54;16.85;;;11.95;;
81938;SDS011;71437;42.018;21.354;2023-07-16T07:27:20;21.33;;;13.75;;
81938;SDS011;71437;42.018;21.354;2023-07-16T07:29:46;22.95;;;15.85;;
81938;SDS011;71437;42.018;21.354;2023-07-16T07:32:16;25.48;;;15.23;;
81938;SDS011;71437;42.018;21.354;2023-07-16T07:34:42;20.52;;;13.32;;
81938;SDS011;71437;42.018;21.354;2023-07-16T07:37:08;17.80;;;13.23;;
81938;SDS011;71437;42.018;21.354;2023-07-16T07:39:36;17.92;;;13.80;;
81938;SDS011;71437;42.018;21.354;2023-07-16T07:42:02;18.10;;;12.60;;
81938;SDS011;71437;42.018;21.354;2023-07-16T07:44:28;21.95;;;13.60;;
81938;SDS011;71437;42.018;21.354;2023-07-16T07:46:54;18.23;;;13.88;;
81938;SDS011;71437;42.018;21.354;2023-07-16T07:49:20;17.17;;;14.25;;
81938;SDS011;71437;42.018;21.354;2023-07-16T07:51:46;22.13;;;14.18;;
81938;SDS011;71437;42.018;21.354;2023-07-16T07:54:14;20.48;;;14.70;;
81938;SDS011;71437;42.018;21.354;2023-07-16T07:56:40;20.42;;;13.65;;
81938;SDS011;71437;42.018;21.354;2023-07-16T07:59:07;18.63;;;13.95;;
81938;SDS011;71437;42.018;21.354;2023-07-16T08:01:33;18.25;;;12.25;;
81938;SDS011;71437;42.018;21.354;2023-07-16T08:03:59;19.30;;;12.27;;
81938;SDS011;71437;42.018;21.354;2023-07-16T08:06:25;18.27;;;13.77;;
81938;SDS011;71437;42.018;21.354;2023-07-16T08:08:51;22.35;;;13.07;;
81938;SDS011;71437;42.018;21.354;2023-07-16T08:11:17;18.77;;;13.60;;
81938;SDS011;71437;42.018;21.354;2023-07-16T08:13:43;15.13;;;12.05;;
81938;SDS011;71437;42.018;21.354;2023-07-16T08:16:09;17.73;;;12.02;;
81938;SDS011;71437;42.018;21.354;2023-07-16T08:18:36;15.57;;;13.02;;
81938;SDS011;71437;42.018;21.354;2023-07-16T08:21:02;19.20;;;13.73;;
81938;SDS011;71437;42.018;21.354;2023-07-16T08:23:28;19.30;;;12.55;;
81938;SDS011;71437;42.018;21.354;2023-07-16T08:25:54;18.40;;;12.38;;
81938;SDS011;71437;42.018;21.354;2023-07-16T08:28:20;16.08;;;13.02;;
81938;SDS011;71437;42.018;21.354;2023-07-16T08:30:46;28.38;;;12.95;;
81938;SDS011;71437;42.018;21.354;2023-07-16T08:33:13;21.63;;;13.23;;
81938;SDS011;71437;42.018;21.354;2023-07-16T08:35:40;23.52;;;13.38;;
81938;SDS011;71437;42.018;21.354;2023-07-16T08:38:06;20.35;;;13.30;;
81938;SDS011;71437;42.018;21.354;2023-07-16T08:40:35;17.63;;;12.48;;
81938;SDS011;71437;42.018;21.354;2023-07-16T08:43:01;14.35;;;11.75;;
81938;SDS011;71437;42.018;21.354;2023-07-16T08:45:28;23.17;;;13.23;;
81938;SDS011;71437;42.018;21.354;2023-07-16T08:47:55;19.95;;;12.75;;
81938;SDS011;71437;42.018;21.354;2023-07-16T08:50:21;20.90;;;12.48;;
81938;SDS011;71437;42.018;21.354;2023-07-16T08:52:48;20.38;;;13.02;;
81938;SDS011;71437;42.018;21.354;2023-07-16T08:55:14;17.35;;;12.63;;
81938;SDS011;71437;42.018;21.354;2023-07-16T08:57:40;19.05;;;12.48;;
81938;SDS011;71437;42.018;21.354;2023-07-16T09:00:07;19.70;;;12.73;;
81938;SDS011;71437;42.018;21.354;2023-07-16T09:02:34;15.15;;;12.30;;
81938;SDS011;71437;42.018;21.354;2023-07-16T09:05:00;20.13;;;11.95;;
81938;SDS011;71437;42.018;21.354;2023-07-16T09:07:26;14.43;;;11.18;;
81938;SDS011;71437;42.018;21.354;2023-07-16T09:09:58;24.63;;;14.23;;
81938;SDS011;71437;42.018;21.354;2023-07-16T09:12:25;18.67;;;13.20;;
81938;SDS011;71437;42.018;21.354;2023-07-16T09:14:51;16.67;;;12.45;;
81938;SDS011;71437;42.018;21.354;2023-07-16T09:17:23;19.15;;;14.30;;
81938;SDS011;71437;42.018;21.354;2023-07-16T09:19:50;21.85;;;14.57;;
81938;SDS011;71437;42.018;21.354;2023-07-16T09:22:17;19.70;;;12.75;;
81938;SDS011;71437;42.018;21.354;2023-07-16T09:24:47;18.38;;;14.60;;
81938;SDS011;71437;42.018;21.354;2023-07-16T09:27:13;15.77;;;12.27;;
81938;SDS011;71437;42.018;21.354;2023-07-16T09:29:39;17.85;;;13.05;;
81938;SDS011;71437;42.018;21.354;2023-07-16T09:32:05;20.65;;;13.40;;
81938;SDS011;71437;42.018;21.354;2023-07-16T09:34:32;15.45;;;12.43;;
81938;SDS011;71437;42.018;21.354;2023-07-16T09:36:59;17.92;;;13.95;;
81938;SDS011;71437;42.018;21.354;2023-07-16T09:39:26;16.77;;;13.15;;
81938;SDS011;71437;42.018;21.354;2023-07-16T09:41:53;15.10;;;12.52;;
81938;SDS011;71437;42.018;21.354;2023-07-16T09:44:21;20.58;;;13.63;;
81938;SDS011;71437;42.018;21.354;2023-07-16T09:46:47;22.00;;;13.95;;
81938;SDS011;71437;42.018;21.354;2023-07-16T09:49:14;16.40;;;13.10;;
81938;SDS011;71437;42.018;21.354;2023-07-16T09:51:40;16.75;;;13.63;;
81938;SDS011;71437;42.018;21.354;2023-07-16T09:54:08;26.80;;;13.48;;
81938;SDS011;71437;42.018;21.354;2023-07-16T09:59:00;19.45;;;13.52;;
81938;SDS011;71437;42.018;21.354;2023-07-16T10:01:28;19.33;;;14.30;;
81938;SDS011;71437;42.018;21.354;2023-07-16T10:03:54;21.52;;;13.52;;
81938;SDS011;71437;42.018;21.354;2023-07-16T10:06:20;23.45;;;15.00;;
81938;SDS011;71437;42.018;21.354;2023-07-16T10:08:50;21.70;;;15.23;;
81938;SDS011;71437;42.018;21.354;2023-07-16T10:11:16;16.83;;;15.05;;
81938;SDS011;71437;42.018;21.354;2023-07-16T10:13:43;17.35;;;13.63;;
81938;SDS011;71437;42.018;21.354;2023-07-16T10:16:19;20.45;;;13.45;;
81938;SDS011;71437;42.018;21.354;2023-07-16T10:18:50;18.98;;;13.15;;
81938;SDS011;71437;42.018;21.354;2023-07-16T10:21:22;18.48;;;14.32;;
81938;SDS011;71437;42.018;21.354;2023-07-16T10:23:56;21.50;;;15.90;;
81938;SDS011;71437;42.018;21.354;2023-07-16T10:26:26;21.02;;;14.10;;
81938;SDS011;71437;42.018;21.354;2023-07-16T10:28:53;20.70;;;13.40;;
81938;SDS011;71437;42.018;21.354;2023-07-16T10:31:23;21.85;;;15.00;;
81938;SDS011;71437;42.018;21.354;2023-07-16T10:33:57;20.73;;;14.38;;
81938;SDS011;71437;42.018;21.354;2023-07-16T10:36:24;20.48;;;13.70;;
81938;SDS011;71437;42.018;21.354;2023-07-16T10:38:50;17.75;;;13.80;;
81938;SDS011;71437;42.018;21.354;2023-07-16T10:41:16;18.98;;;15.18;;
81938;SDS011;71437;42.018;21.354;2023-07-16T10:43:43;17.20;;;12.82;;
81938;SDS011;71437;42.018;21.354;2023-07-16T10:46:09;23.05;;;13.02;;
81938;SDS011;71437;42.018;21.354;2023-07-16T10:48:35;24.08;;;13.70;;
81938;SDS011;71437;42.018;21.354;2023-07-16T10:51:01;17.90;;;12.25;;
81938;SDS011;71437;42.018;21.354;2023-07-16T10:53:27;20.38;;;13.20;;
81938;SDS011;71437;42.018;21.354;2023-07-16T10:55:53;21.70;;;14.90;;
81938;SDS011;71437;42.018;21.354;2023-07-16T10:58:19;19.42;;;13.70;;
81938;SDS011;71437;42.018;21.354;2023-07-16T11:00:45;16.10;;;12.90;;
81938;SDS011;71437;42.018;21.354;2023-07-16T11:03:14;17.85;;;13.68;;
81938;SDS011;71437;42.018;21.354;2023-07-16T11:05:41;23.35;;;13.13;;
81938;SDS011;71437;42.018;21.354;2023-07-16T11:08:07;18.75;;;13.65;;
81938;SDS011;71437;42.018;21.354;2023-07-16T11:10:33;16.10;;;13.35;;
81938;SDS011;71437;42.018;21.354;2023-07-16T11:12:59;21.77;;;12.30;;
81938;SDS011;71437;42.018;21.354;2023-07-16T11:15:32;22.23;;;12.93;;
81938;SDS011;71437;42.018;21.354;2023-07-16T11:17:59;14.60;;;11.85;;
81938;SDS011;71437;42.018;21.354;2023-07-16T11:20:25;17.17;;;13.18;;
81938;SDS011;71437;42.018;21.354;2023-07-16T11:22:51;22.17;;;12.73;;
81938;SDS011;71437;42.018;21.354;2023-07-16T11:25:17;18.90;;;13.38;;
81938;SDS011;71437;42.018;21.354;2023-07-16T11:27:45;21.15;;;13.65;;
81938;SDS011;71437;42.018;21.354;2023-07-16T11:30:11;24.52;;;14.52;;
81938;SDS011;71437;42.018;21.354;2023-07-16T11:32:47;20.33;;;12.30;;
81938;SDS011;71437;42.018;21.354;2023-07-16T11:35:17;20.52;;;13.70;;
81938;SDS011;71437;42.018;21.354;2023-07-16T11:37:44;16.10;;;14.35;;
81938;SDS011;71437;42.018;21.354;2023-07-16T11:40:14;18.98;;;14.00;;
81938;SDS011;71437;42.018;21.354;2023-07-16T11:42:40;19.85;;;13.77;;
81938;SDS011;71437;42.018;21.354;2023-07-16T11:45:18;17.55;;;14.40;;
81938;SDS011;71437;42.018;21.354;2023-07-16T11:47:44;23.33;;;13.32;;
81938;SDS011;71437;42.018;21.354;2023-07-16T11:50:10;21.23;;;13.07;;
81938;SDS011;71437;42.018;21.354;2023-07-16T11:52:36;17.88;;;12.90;;
81938;SDS011;71437;42.018;21.354;2023-07-16T11:55:04;18.98;;;12.63;;
81938;SDS011;71437;42.018;21.354;2023-07-16T11:57:30;19.80;;;12.32;;
81938;SDS011;71437;42.018;21.354;2023-07-16T11:59:56;21.50;;;13.38;;
81938;SDS011;71437;42.018;21.354;2023-07-16T12:02:23;22.48;;;13.23;;
81938;SDS011;71437;42.018;21.354;2023-07-16T12:04:50;22.02;;;14.23;;
81938;SDS011;71437;42.018;21.354;2023-07-16T12:07:29;19.60;;;11.82;;
81938;SDS011;71437;42.018;21.354;2023-07-16T12:09:56;19.55;;;13.35;;
81938;SDS011;71437;42.018;21.354;2023-07-16T12:12:22;18.90;;;12.73;;
81938;SDS011;71437;42.018;21.354;2023-07-16T12:14:48;24.35;;;13.27;;
81938;SDS011;71437;42.018;21.354;2023-07-16T12:17:14;20.05;;;13.18;;
81938;SDS011;71437;42.018;21.354;2023-07-16T12:19:40;18.95;;;13.63;;
81938;SDS011;71437;42.018;21.354;2023-07-16T12:22:06;21.33;;;13.75;;
81938;SDS011;71437;42.018;21.354;2023-07-16T12:24:32;19.52;;;13.13;;
81938;SDS011;71437;42.018;21.354;2023-07-16T12:26:58;19.83;;;13.18;;
81938;SDS011;71437;42.018;21.354;2023-07-16T12:29:24;20.52;;;13.27;;
81938;SDS011;71437;42.018;21.354;2023-07-16T12:31:50;19.48;;;12.77;;
81938;SDS011;71437;42.018;21.354;2023-07-16T12:34:16;19.30;;;12.73;;
81938;SDS011;71437;42.018;21.354;2023-07-16T12:36:42;25.30;;;13.27;;
81938;SDS011;71437;42.018;21.354;2023-07-16T12:39:08;19.15;;;14.05;;
81938;SDS011;71437;42.018;21.354;2023-07-16T12:41:34;25.25;;;13.65;;
81938;SDS011;71437;42.018;21.354;2023-07-16T12:44:00;20.77;;;12.35;;
81938;SDS011;71437;42.018;21.354;2023-07-16T12:46:26;22.38;;;13.40;;
81938;SDS011;71437;42.018;21.354;2023-07-16T12:48:52;22.23;;;13.63;;
81938;SDS011;71437;42.018;21.354;2023-07-16T12:51:18;20.92;;;12.73;;
81938;SDS011;71437;42.018;21.354;2023-07-16T12:53:44;20.48;;;12.20;;
81938;SDS011;71437;42.018;21.354;2023-07-16T12:56:11;17.52;;;11.75;;
81938;SDS011;71437;42.018;21.354;2023-07-16T12:58:37;22.13;;;12.80;;
81938;SDS011;71437;42.018;21.354;2023-07-16T13:01:03;17.40;;;12.10;;
81938;SDS011;71437;42.018;21.354;2023-07-16T13:03:29;21.25;;;13.23;;
81938;SDS011;71437;42.018;21.354;2023-07-16T13:05:55;20.92;;;12.68;;
81938;SDS011;71437;42.018;21.354;2023-07-16T13:08:21;20.40;;;13.23;;
81938;SDS011;71437;42.018;21.354;2023-07-16T13:10:47;20.85;;;12.50;;
81938;SDS011;71437;42.018;21.354;2023-07-16T13:13:13;23.13;;;11.88;;
81938;SDS011;71437;42.018;21.354;2023-07-16T13:15:40;28.23;;;12.63;;
81938;SDS011;71437;42.018;21.354;2023-07-16T13:18:07;18.77;;;11.70;;
81938;SDS011;71437;42.018;21.354;2023-07-16T13:20:35;22.35;;;12.40;;
81938;SDS011;71437;42.018;21.354;2023-07-16T13:23:01;17.83;;;11.38;;
81938;SDS011;71437;42.018;21.354;2023-07-16T13:25:28;21.67;;;11.35;;
81938;SDS011;71437;42.018;21.354;2023-07-16T13:27:55;14.82;;;9.75;;
81938;SDS011;71437;42.018;21.354;2023-07-16T13:30:21;19.98;;;10.85;;
81938;SDS011;71437;42.018;21.354;2023-07-16T13:32:47;18.42;;;11.52;;
81938;SDS011;71437;42.018;21.354;2023-07-16T13:35:17;18.00;;;10.00;;
81938;SDS011;71437;42.018;21.354;2023-07-16T13:37:43;15.27;;;9.32;;
81938;SDS011;71437;42.018;21.354;2023-07-16T13:40:11;21.52;;;10.02;;
81938;SDS011;71437;42.018;21.354;2023-07-16T13:42:37;19.55;;;10.18;;
81938;SDS011;71437;42.018;21.354;2023-07-16T13:45:04;19.90;;;12.48;;
81938;SDS011;71437;42.018;21.354;2023-07-16T13:47:30;18.38;;;11.52;;
81938;SDS011;71437;42.018;21.354;2023-07-16T13:49:56;17.75;;;9.55;;
81938;SDS011;71437;42.018;21.354;2023-07-16T13:52:22;19.25;;;12.00;;
81938;SDS011;71437;42.018;21.354;2023-07-16T13:54:48;17.08;;;10.57;;
81938;SDS011;71437;42.018;21.354;2023-07-16T13:57:14;17.30;;;10.38;;
81938;SDS011;71437;42.018;21.354;2023-07-16T13:59:41;20.50;;;11.70;;
81938;SDS011;71437;42.018;21.354;2023-07-16T14:02:07;19.10;;;11.88;;
81938;SDS011;71437;42.018;21.354;2023-07-16T14:04:33;17.48;;;11.60;;
81938;SDS011;71437;42.018;21.354;2023-07-16T14:06:59;18.13;;;10.43;;
81938;SDS011;71437;42.018;21.354;2023-07-16T14:09:25;20.77;;;11.55;;